Time;durP1;ratioP1;P1;durP2;ratioP2;P2;SDS_P1;SDS_P2;PMS_P1;PMS_P2;Temp;Humidity;BMP_temperature;BMP_pressure;BME280_temperature;BME280_humidity;BME280_pressure;Samples;Min_cycle;Max_cycle;Signal;HPM_P1;HPM_P2
2022/06/12 00:00:18;;;;;;;6.30;4.97;;;15.60;99.90;;;;;;5018731;28;20475;-62
2022/06/12 00:02:46;;;;;;;6.20;4.93;;;15.50;1.00;;;;;;5020061;28;20460;-62
2022/06/12 00:05:15;;;;;;;6.70;5.00;;;15.40;1.00;;;;;;5019429;28;20452;-62
2022/06/12 00:07:43;;;;;;;5.63;4.83;;;15.40;52.90;;;;;;5019887;28;20442;-62
2022/06/12 00:10:21;;;;;;;8.47;5.43;;;15.40;1.00;;;;;;5019225;28;20464;-62
2022/06/12 00:12:49;;;;;;;8.80;5.20;;;15.40;1.00;;;;;;5019721;28;20463;-62
2022/06/12 00:15:19;;;;;;;8.87;5.90;;;15.40;1.00;;;;;;5018681;28;20490;-62
2022/06/12 00:17:47;;;;;;;7.63;5.27;;;15.40;1.00;;;;;;5019457;28;20438;-62
2022/06/12 00:20:19;;;;;;;7.03;5.00;;;15.50;1.00;;;;;;5019436;28;20651;-62
2022/06/12 00:22:47;;;;;;;8.77;5.30;;;15.50;1.00;;;;;;5019932;28;20522;-62
2022/06/12 00:25:14;;;;;;;10.70;5.97;;;15.50;99.90;;;;;;5019531;28;20465;-62
2022/06/12 00:27:43;;;;;;;8.20;5.13;;;15.50;99.90;;;;;;5018970;28;20530;-62
2022/06/12 00:30:19;;;;;;;5.80;5.10;;;15.50;99.90;;;;;;5019236;28;20438;-62
2022/06/12 00:32:52;;;;;;;7.43;4.60;;;15.50;99.90;;;;;;5019932;28;20495;-62
2022/06/12 00:35:25;;;;;;;7.97;5.57;;;15.50;99.90;;;;;;5019794;28;20599;-62
2022/06/12 00:37:52;;;;;;;6.80;5.03;;;15.40;99.90;;;;;;5019609;28;20472;-62
2022/06/12 00:40:20;;;;;;;8.67;4.53;;;15.30;99.90;;;;;;5019651;28;20765;-62
2022/06/12 00:42:53;;;;;;;9.73;5.20;;;15.40;99.90;;;;;;5019326;28;20909;-62
2022/06/12 00:45:39;;;;;;;8.93;5.70;;;15.30;99.90;;;;;;5020012;28;20468;-62
2022/06/12 00:48:10;;;;;;;9.60;5.37;;;15.20;99.90;;;;;;5019298;28;20468;-62
2022/06/12 00:50:41;;;;;;;5.30;4.60;;;15.20;99.90;;;;;;5019546;28;20478;-62
2022/06/12 00:53:14;;;;;;;5.80;4.60;;;15.10;99.90;;;;;;5019767;28;20536;-62
2022/06/12 00:55:55;;;;;;;7.93;5.80;;;15.00;99.90;;;;;;5019162;28;20937;-62
2022/06/12 00:58:26;;;;;;;10.10;5.83;;;14.90;99.90;;;;;;5019378;28;20462;-62
2022/06/12 01:00:54;;;;;;;6.70;5.10;;;15.00;99.90;;;;;;5019759;28;20464;-62
2022/06/12 01:03:25;;;;;;;10.30;5.60;;;14.90;1.00;;;;;;5019378;28;20471;-62
2022/06/12 01:08:37;;;;;;;11.47;5.80;;;14.80;99.90;;;;;;5018958;28;20434;-62
2022/06/12 01:11:09;;;;;;;6.77;5.67;;;14.80;1.00;;;;;;5019485;28;20464;-62
2022/06/12 01:13:43;;;;;;;9.10;5.90;;;14.60;1.00;;;;;;5016778;28;20751;-62
2022/06/12 01:16:15;;;;;;;10.27;5.93;;;14.60;99.90;;;;;;5019084;28;20498;-62
2022/06/12 01:18:46;;;;;;;6.43;5.20;;;14.60;99.90;;;;;;5019078;28;20471;-62
2022/06/12 01:21:39;;;;;;;7.80;5.83;;;14.50;99.90;;;;;;5018705;28;20491;-62
2022/06/12 01:24:35;;;;;;;6.67;5.87;;;14.50;99.90;;;;;;4998748;28;20506;-62
2022/06/12 01:27:26;;;;;;;6.20;5.37;;;14.50;1.00;;;;;;5018892;28;20471;-62
2022/06/12 01:30:02;;;;;;;10.67;5.60;;;14.40;89.40;;;;;;5017926;28;20468;-62
2022/06/12 01:32:34;;;;;;;7.70;5.60;;;14.40;1.00;;;;;;5018548;28;20463;-62
2022/06/12 01:35:07;;;;;;;7.03;5.10;;;14.50;99.90;;;;;;5018406;28;20504;-62
2022/06/12 01:37:47;;;;;;;7.90;5.70;;;14.40;1.00;;;;;;5018407;28;20467;-62
2022/06/12 01:40:23;;;;;;;9.10;6.27;;;14.40;1.00;;;;;;5018106;28;20538;-62
2022/06/12 01:43:00;;;;;;;10.03;5.17;;;14.40;1.00;;;;;;5018432;28;20889;-62
2022/06/12 01:45:40;;;;;;;9.00;5.60;;;14.30;1.00;;;;;;5018954;28;20725;-62
2022/06/12 01:48:19;;;;;;;10.50;5.37;;;14.30;99.90;;;;;;5018298;28;20915;-62
2022/06/12 01:50:55;;;;;;;8.83;4.60;;;14.30;1.00;;;;;;5017474;28;20442;-62
2022/06/12 01:53:29;;;;;;;10.53;5.60;;;14.20;99.90;;;;;;5017953;28;20438;-62
2022/06/12 01:56:07;;;;;;;9.33;6.37;;;14.10;99.90;;;;;;5017906;28;20501;-62
2022/06/12 01:58:45;;;;;;;8.60;5.47;;;14.10;99.90;;;;;;5018318;28;20554;-62
2022/06/12 02:01:18;;;;;;;8.37;5.87;;;14.00;1.00;;;;;;5017686;28;20571;-62
2022/06/12 02:03:51;;;;;;;10.33;5.93;;;13.90;1.00;;;;;;5017952;28;20804;-62
2022/06/12 02:06:23;;;;;;;6.17;5.57;;;13.80;99.90;;;;;;5018112;28;20483;-62
2022/06/12 02:08:57;;;;;;;6.33;5.27;;;13.80;99.90;;;;;;5018464;28;20920;-62
2022/06/12 02:14:15;;;;;;;9.40;5.83;;;13.70;99.90;;;;;;5016955;28;20430;-63
2022/06/12 02:16:47;;;;;;;6.60;5.70;;;13.70;99.90;;;;;;5015672;28;20484;-63
2022/06/12 02:19:19;;;;;;;8.67;6.47;;;13.60;99.90;;;;;;5016454;28;20460;-63
2022/06/12 02:21:52;;;;;;;10.67;6.60;;;13.60;1.00;;;;;;5015728;28;20805;-63
2022/06/12 02:24:25;;;;;;;9.90;6.17;;;13.60;99.90;;;;;;5006070;28;20551;-63
2022/06/12 02:26:59;;;;;;;10.10;6.20;;;13.60;1.00;;;;;;5014507;28;20529;-63
2022/06/12 02:29:31;;;;;;;7.10;6.30;;;13.60;1.00;;;;;;5014134;28;20522;-63
2022/06/12 02:32:03;;;;;;;11.20;6.80;;;13.40;1.00;;;;;;5015274;28;20875;-63
2022/06/12 02:34:37;;;;;;;8.73;6.20;;;13.40;1.00;;;;;;5014264;28;20956;-63
2022/06/12 02:37:11;;;;;;;8.43;7.13;;;13.40;99.90;;;;;;5016045;28;20569;-63
2022/06/12 02:39:43;;;;;;;7.33;6.33;;;13.40;1.00;;;;;;5015773;28;20456;-63
2022/06/12 02:42:15;;;;;;;8.40;6.60;;;13.30;1.00;;;;;;5013655;28;20463;-63
2022/06/12 02:44:46;;;;;;;13.07;6.30;;;13.30;99.90;;;;;;5016056;28;20804;-63
2022/06/12 02:47:18;;;;;;;10.27;6.70;;;13.30;99.90;;;;;;5016002;28;20522;-63
2022/06/12 02:49:48;;;;;;;7.23;6.17;;;13.20;99.90;;;;;;5015459;28;20455;-63
2022/06/12 02:52:24;;;;;;;9.47;5.70;;;13.10;1.00;;;;;;5015145;28;20430;-63
2022/06/12 02:55:04;;;;;;;7.73;5.97;;;13.10;99.90;;;;;;5013921;28;20491;-62
2022/06/12 02:57:39;;;;;;;8.90;6.40;;;13.10;99.90;;;;;;5013149;28;20538;-62
2022/06/12 03:00:14;;;;;;;8.87;6.10;;;13.10;1.00;;;;;;5015917;28;20422;-62
2022/06/12 03:02:50;;;;;;;7.90;6.77;;;13.10;99.90;;;;;;5015355;28;20464;-62
2022/06/12 03:05:21;;;;;;;7.50;6.70;;;13.10;1.00;;;;;;5014707;28;20430;-62
2022/06/12 03:07:52;;;;;;;12.70;7.13;;;13.00;99.90;;;;;;5012528;28;21000;-62
2022/06/12 03:10:24;;;;;;;10.93;6.70;;;12.90;87.30;;;;;;5015906;28;20460;-62
2022/06/12 03:12:55;;;;;;;11.97;6.67;;;12.90;99.90;;;;;;5015688;28;20460;-62
2022/06/12 03:15:37;;;;;;;6.87;5.93;;;12.80;99.90;;;;;;5015865;28;20487;-62
2022/06/12 03:18:10;;;;;;;7.90;6.50;;;12.70;99.90;;;;;;5016660;28;20700;-62
2022/06/12 03:20:52;;;;;;;7.03;6.07;;;12.60;1.00;;;;;;5017235;28;20475;-62
2022/06/12 03:23:34;;;;;;;8.20;5.13;;;12.70;99.90;;;;;;5016991;28;20563;-62
2022/06/12 03:26:05;;;;;;;11.40;6.50;;;12.60;1.00;;;;;;5016858;28;20527;-62
2022/06/12 03:28:38;;;;;;;7.10;6.10;;;12.60;99.90;;;;;;5016407;28;20470;-62
2022/06/12 03:31:18;;;;;;;9.47;6.07;;;12.50;1.00;;;;;;5016245;28;20780;-62
2022/06/12 03:33:57;;;;;;;11.37;6.47;;;12.50;99.90;;;;;;5015130;28;20526;-62
2022/06/12 03:36:30;;;;;;;9.20;6.33;;;12.50;3.90;;;;;;5013875;28;20495;-62
2022/06/12 03:39:06;;;;;;;7.83;6.10;;;12.60;1.00;;;;;;5012702;28;20464;-62
2022/06/12 03:41:41;;;;;;;8.40;6.53;;;12.60;99.90;;;;;;5015255;28;20430;-62
2022/06/12 03:44:15;;;;;;;10.50;6.10;;;12.60;1.00;;;;;;5015304;28;20739;-62
2022/06/12 03:46:47;;;;;;;8.97;6.37;;;12.50;99.90;;;;;;5017169;28;20468;-62
2022/06/12 03:49:24;;;;;;;8.63;6.87;;;12.40;1.00;;;;;;5015786;28;20460;-62
2022/06/12 03:51:56;;;;;;;10.33;6.50;;;12.50;1.00;;;;;;5015874;28;20446;-62
2022/06/12 03:54:31;;;;;;;7.40;6.00;;;12.50;99.90;;;;;;5016220;28;20464;-62
2022/06/12 03:59:55;;;;;;;10.77;6.83;;;12.40;1.00;;;;;;5015587;28;20447;-62
2022/06/12 04:02:26;;;;;;;10.90;6.37;;;12.40;1.00;;;;;;5016875;28;20530;-62
2022/06/12 04:04:56;;;;;;;9.83;7.37;;;12.50;99.90;;;;;;5016330;28;20733;-62
2022/06/12 04:07:27;;;;;;;7.73;6.10;;;12.50;99.90;;;;;;5016877;28;20522;-62
2022/06/12 04:10:02;;;;;;;7.57;6.40;;;12.50;1.00;;;;;;5016303;28;20905;-62
2022/06/12 04:12:33;;;;;;;7.90;6.70;;;12.50;86.30;;;;;;5016987;28;20779;-62
2022/06/12 04:15:05;;;;;;;8.50;7.63;;;12.60;99.90;;;;;;5017558;28;20471;-61
2022/06/12 04:17:32;;;;;;;12.30;6.67;;;12.60;99.90;;;;;;5019772;28;20525;-62
2022/06/12 04:20:04;;;;;;;8.80;7.80;;;12.60;99.90;;;;;;5019288;28;20460;-62
2022/06/12 04:22:42;;;;;;;10.20;7.70;;;12.60;1.00;;;;;;5020126;28;20841;-61
2022/06/12 04:25:26;;;;;;;8.50;7.40;;;12.60;31.60;;;;;;5019597;28;20438;-62
2022/06/12 04:27:53;;;;;;;9.30;7.30;;;12.60;1.00;;;;;;5019624;28;20503;-62
2022/06/12 04:30:25;;;;;;;10.97;7.93;;;12.70;1.00;;;;;;5018956;28;20455;-62
2022/06/12 04:33:09;;;;;;;14.87;7.97;;;12.70;1.00;;;;;;5017519;28;20435;-62
2022/06/12 04:35:46;;;;;;;10.03;7.77;;;12.70;1.00;;;;;;5016801;28;20474;-62
2022/06/12 04:38:17;;;;;;;9.53;7.83;;;12.80;32.70;;;;;;5018140;28;20462;-62
2022/06/12 04:40:44;;;;;;;9.47;7.83;;;12.90;1.00;;;;;;5015685;28;20468;-62
2022/06/12 04:43:11;;;;;;;10.83;8.13;;;13.00;99.90;;;;;;5017960;28;20435;-62
2022/06/12 04:45:39;;;;;;;15.23;8.07;;;13.10;99.90;;;;;;5017487;28;20452;-62
2022/06/12 04:48:12;;;;;;;10.30;8.23;;;13.10;1.00;;;;;;5018252;28;20464;-62
2022/06/12 04:50:40;;;;;;;10.13;7.40;;;13.10;99.90;;;;;;5018329;28;20456;-62
2022/06/12 04:53:08;;;;;;;11.27;8.80;;;13.20;99.90;;;;;;5017676;28;20467;-62
2022/06/12 04:55:37;;;;;;;9.47;7.00;;;13.30;99.90;;;;;;5017410;28;21021;-62
2022/06/12 04:58:07;;;;;;;12.27;7.87;;;13.30;99.90;;;;;;5019161;28;20467;-62
2022/06/12 05:00:35;;;;;;;11.10;6.67;;;13.40;1.00;;;;;;5019553;28;20464;-62
2022/06/12 05:03:02;;;;;;;13.90;7.40;;;13.50;99.90;;;;;;5018683;28;20554;-61
2022/06/12 05:05:30;;;;;;;12.47;7.83;;;13.50;99.90;;;;;;5019702;28;20485;-61
2022/06/12 05:08:00;;;;;;;11.23;8.30;;;13.60;94.30;;;;;;5018340;28;20464;-61
2022/06/12 05:10:28;;;;;;;12.33;7.10;;;13.60;25.00;;;;;;5019052;28;20468;-61
2022/06/12 05:12:57;;;;;;;7.13;6.43;;;13.70;1.00;;;;;;5018672;28;20463;-61
2022/06/12 05:15:25;;;;;;;9.23;7.10;;;13.70;1.00;;;;;;5019158;28;20889;-62
2022/06/12 05:17:52;;;;;;;8.13;6.67;;;13.80;1.00;;;;;;5018789;28;20438;-61
2022/06/12 05:20:27;;;;;;;8.43;6.00;;;13.90;1.00;;;;;;5019344;28;20481;-62
2022/06/12 05:22:55;;;;;;;12.90;7.17;;;14.00;1.00;;;;;;5017724;28;20923;-62
2022/06/12 05:25:24;;;;;;;11.37;6.20;;;14.10;1.00;;;;;;5018125;28;20456;-62
2022/06/12 05:27:53;;;;;;;9.87;7.13;;;14.10;99.90;;;;;;5016103;28;20770;-62
2022/06/12 05:30:22;;;;;;;7.43;6.10;;;14.20;99.90;;;;;;5017598;28;20566;-62
2022/06/12 05:32:54;;;;;;;11.10;6.87;;;14.40;1.00;;;;;;5016505;28;20927;-62
2022/06/12 05:35:23;;;;;;;9.20;6.03;;;14.60;1.00;;;;;;5018330;28;20488;-62
2022/06/12 05:37:51;;;;;;;6.47;5.87;;;14.70;99.90;;;;;;5018568;28;20468;-62
2022/06/12 05:40:22;;;;;;;7.73;5.90;;;14.90;1.00;;;;;;5018863;28;20471;-62
2022/06/12 05:42:53;;;;;;;14.80;7.67;;;15.00;99.90;;;;;;5018205;28;20519;-62
2022/06/12 05:45:23;;;;;;;7.77;5.40;;;15.30;99.90;;;;;;5017824;28;20845;-62
2022/06/12 05:47:55;;;;;;;7.77;5.20;;;15.60;1.00;;;;;;5018373;28;20739;-62
2022/06/12 05:50:26;;;;;;;8.40;5.90;;;15.80;1.00;;;;;;5017200;28;20464;-63
2022/06/12 05:52:55;;;;;;;9.00;6.13;;;16.10;1.00;;;;;;5017596;28;20566;-63
2022/06/12 05:55:25;;;;;;;10.67;5.50;;;16.40;1.00;;;;;;5016914;28;20901;-63
2022/06/12 05:57:53;;;;;;;10.33;5.67;;;16.70;1.00;;;;;;5017541;28;20455;-63
2022/06/12 06:00:25;;;;;;;9.00;5.20;;;17.10;1.00;;;;;;4998766;28;20472;-63
2022/06/12 06:02:52;;;;;;;8.30;6.10;;;17.30;1.00;;;;;;4998203;28;20439;-63
2022/06/12 06:05:20;;;;;;;9.70;6.20;;;17.50;1.00;;;;;;5008741;28;20441;-63
2022/06/12 06:07:47;;;;;;;12.27;7.00;;;17.90;1.00;;;;;;5017938;28;20893;-63
2022/06/12 06:10:18;;;;;;;6.40;5.73;;;18.10;1.00;;;;;;5017508;28;20464;-62
2022/06/12 06:12:45;;;;;;;11.53;5.77;;;18.50;1.00;;;;;;5017611;28;20472;-63
2022/06/12 06:15:14;;;;;;;7.93;5.63;;;18.60;99.90;;;;;;5015903;28;20739;-63
2022/06/12 06:17:42;;;;;;;6.60;4.93;;;18.90;99.90;;;;;;5017220;28;20498;-62
2022/06/12 06:20:12;;;;;;;9.07;5.17;;;19.20;99.90;;;;;;5017541;28;20468;-63
2022/06/12 06:22:39;;;;;;;7.93;4.70;;;19.30;99.90;;;;;;5017944;28;20463;-62
2022/06/12 06:25:09;;;;;;;10.10;5.17;;;19.40;99.90;;;;;;5017793;28;20463;-63
2022/06/12 06:27:36;;;;;;;5.97;4.60;;;19.50;99.90;;;;;;5017631;28;20467;-63
2022/06/12 06:30:05;;;;;;;8.00;5.57;;;19.60;99.90;;;;;;5018005;28;20464;-63
2022/06/12 06:32:34;;;;;;;9.17;5.23;;;19.90;99.90;;;;;;5017297;28;20471;-63
2022/06/12 06:35:01;;;;;;;10.67;5.77;;;20.30;99.90;;;;;;5017074;28;20468;-62
2022/06/12 06:37:31;;;;;;;9.10;5.27;;;20.40;99.90;;;;;;5016960;28;20550;-63
2022/06/12 06:39:59;;;;;;;9.73;4.40;;;20.60;99.90;;;;;;5017875;28;20744;-63
2022/06/12 06:42:26;;;;;;;7.87;4.60;;;20.90;99.90;;;;;;5017694;28;20443;-63
2022/06/12 06:47:42;;;;;;;6.10;4.73;;;21.30;99.90;;;;;;5016909;28;20526;-63
2022/06/12 06:50:12;;;;;;;5.60;5.00;;;21.80;99.90;;;;;;5017580;28;20450;-63
2022/06/12 06:52:39;;;;;;;6.77;3.90;;;22.00;99.90;;;;;;5017323;28;20468;-63
2022/06/12 06:55:08;;;;;;;6.13;3.70;;;22.50;99.90;;;;;;5017873;28;20464;-63
2022/06/12 06:57:40;;;;;;;5.07;3.23;;;22.30;99.90;;;;;;5017073;28;20833;-63
2022/06/12 07:00:11;;;;;;;5.60;3.30;;;22.50;99.90;;;;;;5017323;28;20464;-63
2022/06/12 07:02:39;;;;;;;6.20;3.90;;;22.60;99.90;;;;;;5017297;28;20468;-63
2022/06/12 07:05:07;;;;;;;7.10;3.00;;;22.70;99.90;;;;;;5017394;28;20526;-63
2022/06/12 07:07:36;;;;;;;9.60;3.33;;;23.10;99.90;;;;;;5017122;28;20746;-63
2022/06/12 07:10:05;;;;;;;5.57;3.10;;;23.10;99.90;;;;;;5017285;28;20566;-63
2022/06/12 07:12:38;;;;;;;5.57;3.03;;;23.10;99.90;;;;;;5017172;28;20464;-63
2022/06/12 07:15:06;;;;;;;10.53;3.57;;;23.10;99.90;;;;;;5017369;28;20522;-63
2022/06/12 07:17:33;;;;;;;5.20;3.37;;;23.40;99.90;;;;;;5016739;28;20500;-63
2022/06/12 07:20:02;;;;;;;6.70;3.57;;;23.60;99.90;;;;;;5017110;28;20443;-63
2022/06/12 07:22:29;;;;;;;6.30;4.10;;;23.50;99.90;;;;;;5016426;28;20464;-63
2022/06/12 07:24:56;;;;;;;7.37;3.57;;;22.90;99.90;;;;;;5016498;28;20471;-63
2022/06/12 07:27:24;;;;;;;12.07;4.23;;;23.10;99.90;;;;;;5016638;28;20811;-63
2022/06/12 07:29:51;;;;;;;6.03;3.30;;;23.60;99.90;;;;;;5015053;28;20471;-63
2022/06/12 07:32:18;;;;;;;10.10;4.50;;;23.90;99.90;;;;;;5016914;28;20452;-63
2022/06/12 07:34:46;;;;;;;9.53;4.40;;;23.90;99.90;;;;;;5016682;28;20576;-63
2022/06/12 07:37:23;;;;;;;6.40;3.80;;;23.90;99.90;;;;;;5016873;28;20506;-63
2022/06/12 07:39:50;;;;;;;5.43;3.63;;;24.30;99.90;;;;;;5015349;28;20830;-63
2022/06/12 07:42:17;;;;;;;9.30;4.23;;;24.50;99.90;;;;;;5016931;28;20490;-63
2022/06/12 07:44:45;;;;;;;10.13;5.20;;;24.40;99.90;;;;;;5016544;28;20467;-63
2022/06/12 07:47:12;;;;;;;11.70;4.50;;;24.70;99.90;;;;;;5017352;28;20747;-63
2022/06/12 07:49:39;;;;;;;7.73;3.80;;;24.70;99.90;;;;;;5017218;28;20459;-64
2022/06/12 07:52:12;;;;;;;8.60;3.93;;;24.90;99.90;;;;;;5020645;28;20526;-63
2022/06/12 07:54:41;;;;;;;7.27;3.90;;;25.00;99.90;;;;;;5020115;28;20468;-63
2022/06/12 07:57:08;;;;;;;11.13;4.00;;;25.20;99.90;;;;;;5020105;28;20496;-64
2022/06/12 07:59:36;;;;;;;7.50;3.70;;;24.30;99.90;;;;;;5019896;28;20897;-63
2022/06/12 08:02:08;;;;;;;7.90;4.70;;;24.10;99.90;;;;;;5020935;28;20467;-63
2022/06/12 08:04:40;;;;;;;9.70;4.70;;;23.80;99.90;;;;;;5017964;28;20476;-64
2022/06/12 08:07:08;;;;;;;10.57;4.03;;;24.50;99.90;;;;;;5019603;28;20463;-63
2022/06/12 08:09:35;;;;;;;13.73;4.57;;;25.20;99.90;;;;;;5019820;28;20746;-64
2022/06/12 08:12:15;;;;;;;11.00;3.80;;;24.90;99.90;;;;;;5019661;28;20837;-64
2022/06/12 08:14:43;;;;;;;6.80;4.00;;;25.50;99.90;;;;;;5020078;28;20760;-64
2022/06/12 08:17:10;;;;;;;11.20;4.93;;;24.80;99.90;;;;;;5020071;28;20535;-64
2022/06/12 08:22:24;;;;;;;9.30;5.23;;;25.00;99.90;;;;;;5019573;28;20753;-63
2022/06/12 08:24:51;;;;;;;9.10;4.40;;;24.50;99.90;;;;;;5019861;28;20499;-63
2022/06/12 08:27:21;;;;;;;11.40;5.53;;;24.10;99.90;;;;;;5016044;28;20842;-63
2022/06/12 08:29:48;;;;;;;9.87;5.53;;;24.40;99.90;;;;;;5017275;28;20473;-64
2022/06/12 08:32:21;;;;;;;8.13;4.17;;;24.60;99.90;;;;;;5017158;28;20514;-64
2022/06/12 08:34:54;;;;;;;10.00;4.60;;;24.70;99.90;;;;;;5019072;28;20464;-63
2022/06/12 08:37:28;;;;;;;11.87;5.20;;;24.50;99.90;;;;;;5011374;28;20500;-63
2022/06/12 08:39:55;;;;;;;6.30;4.43;;;25.00;99.90;;;;;;5005848;28;20924;-63
2022/06/12 08:42:27;;;;;;;9.10;5.80;;;25.40;99.90;;;;;;5018088;28;20534;-63
2022/06/12 08:45:05;;;;;;;10.50;5.20;;;25.30;99.90;;;;;;5019392;28;20562;-63
2022/06/12 08:47:49;;;;;;;9.47;4.63;;;25.50;99.90;;;;;;5009036;28;20945;-62
2022/06/12 08:50:28;;;;;;;7.87;4.90;;;25.40;99.90;;;;;;5006337;28;20463;-64
2022/06/12 08:53:07;;;;;;;9.90;5.77;;;25.60;99.90;;;;;;5017323;28;20529;-63
2022/06/12 08:55:42;;;;;;;9.07;4.80;;;25.40;99.90;;;;;;5019381;28;20833;-64
2022/06/12 08:58:19;;;;;;;10.10;4.60;;;25.00;99.90;;;;;;5019705;28;20924;-64
2022/06/12 09:00:50;;;;;;;8.23;4.43;;;25.20;99.90;;;;;;5018631;28;20463;-63
2022/06/12 09:03:25;;;;;;;8.17;4.70;;;25.40;99.90;;;;;;5019175;28;20768;-63
2022/06/12 09:05:59;;;;;;;8.23;4.27;;;25.00;99.90;;;;;;5019582;28;20465;-62
2022/06/12 09:08:31;;;;;;;6.53;4.60;;;25.20;99.90;;;;;;5019211;28;20456;-64
2022/06/12 09:11:09;;;;;;;5.37;2.70;;;25.30;99.90;;;;;;5019525;28;20460;-64
2022/06/12 09:13:49;;;;;;;5.23;3.10;;;25.60;99.90;;;;;;5019539;28;20460;-63
2022/06/12 09:16:24;;;;;;;6.90;3.47;;;25.60;99.90;;;;;;5018962;28;20566;-64
2022/06/12 09:19:02;;;;;;;6.40;3.10;;;25.60;99.90;;;;;;5019092;28;20558;-64
2022/06/12 09:21:41;;;;;;;4.00;3.10;;;25.80;99.90;;;;;;5018147;28;20464;-64
2022/06/12 09:24:25;;;;;;;5.93;2.73;;;25.80;99.90;;;;;;5016428;28;20492;-63
2022/06/12 09:27:03;;;;;;;4.70;2.73;;;25.90;99.90;;;;;;5015560;28;20434;-65
2022/06/12 09:29:45;;;;;;;4.53;2.50;;;26.50;99.90;;;;;;5015454;28;20574;-64
2022/06/12 09:32:26;;;;;;;3.73;2.93;;;26.00;99.90;;;;;;5015655;28;20927;-63
2022/06/12 09:35:04;;;;;;;3.20;2.37;;;26.30;99.90;;;;;;5015878;28;20459;-63
2022/06/12 09:40:49;;;;;;;2.23;2.03;;;26.10;99.90;;;;;;5014145;28;20455;-63
2022/06/12 09:43:33;;;;;;;6.13;2.20;;;26.50;99.90;;;;;;5014592;28;20554;-63
2022/06/12 09:46:03;;;;;;;2.47;2.27;;;27.20;99.90;;;;;;5016168;28;20821;-63
2022/06/12 09:48:46;;;;;;;2.80;1.97;;;27.40;99.90;;;;;;5014371;28;20467;-63
2022/06/12 09:51:24;;;;;;;2.87;2.40;;;27.40;99.90;;;;;;5016052;28;20455;-63
2022/06/12 09:54:26;;;;;;;5.20;2.30;;;27.10;99.90;;;;;;5013504;28;20468;-64
2022/06/12 09:57:02;;;;;;;2.50;1.70;;;27.10;99.90;;;;;;5010197;28;20830;-63
2022/06/12 09:59:34;;;;;;;3.00;1.97;;;27.10;99.90;;;;;;5014075;28;20467;-64
2022/06/12 10:02:13;;;;;;;2.70;2.20;;;27.30;99.90;;;;;;5015422;28;20456;-63
2022/06/12 10:04:49;;;;;;;3.90;2.03;;;27.40;99.90;;;;;;5016060;28;20460;-63
2022/06/12 10:07:22;;;;;;;2.23;1.93;;;27.50;99.90;;;;;;5016047;28;20833;-63
2022/06/12 10:09:57;;;;;;;2.97;2.10;;;27.20;99.90;;;;;;5013445;28;20836;-64
2022/06/12 10:12:29;;;;;;;2.60;1.40;;;27.30;99.90;;;;;;5015194;28;20479;-65
2022/06/12 10:15:00;;;;;;;2.07;1.87;;;27.70;99.90;;;;;;5015714;28;20468;-63
2022/06/12 10:17:35;;;;;;;3.37;2.07;;;27.70;99.90;;;;;;5016407;28;20495;-64
2022/06/12 10:20:07;;;;;;;3.00;2.30;;;28.20;99.90;;;;;;5015589;28;20495;-63
2022/06/12 10:22:38;;;;;;;6.70;2.20;;;28.00;99.90;;;;;;5015679;28;20554;-64
2022/06/12 10:25:08;;;;;;;4.17;2.40;;;28.40;99.90;;;;;;5013746;28;20468;-63
2022/06/12 10:27:43;;;;;;;2.63;1.83;;;28.30;99.90;;;;;;5017574;28;20464;-63
2022/06/12 10:30:26;;;;;;;2.50;2.30;;;28.20;99.90;;;;;;5017515;28;20916;-63
2022/06/12 10:32:57;;;;;;;3.70;2.03;;;28.80;99.90;;;;;;4998231;28;20924;-63
2022/06/12 10:35:27;;;;;;;3.47;2.00;;;28.50;99.90;;;;;;5004929;28;20479;-63
2022/06/12 10:38:06;;;;;;;4.87;2.60;;;28.20;99.90;;;;;;5017304;28;20496;-63
2022/06/12 10:40:35;;;;;;;3.83;2.43;;;28.20;99.90;;;;;;5016933;28;20455;-63
2022/06/12 10:43:05;;;;;;;3.40;2.30;;;28.40;99.90;;;;;;5017016;28;20483;-64
2022/06/12 10:45:36;;;;;;;2.93;2.10;;;28.50;99.90;;;;;;5017144;28;20464;-63
2022/06/12 10:48:21;;;;;;;3.43;2.07;;;28.30;99.90;;;;;;5017748;28;20744;-63
2022/06/12 10:50:59;;;;;;;7.20;2.83;;;27.80;99.90;;;;;;5018901;28;20459;-63
2022/06/12 10:53:33;;;;;;;4.50;2.63;;;28.10;99.90;;;;;;5016353;28;20881;-63
2022/06/12 10:56:16;;;;;;;4.10;2.90;;;28.60;99.90;;;;;;5016373;28;20774;-63
2022/06/12 10:59:14;;;;;;;4.10;2.43;;;28.90;99.90;;;;;;5013321;28;20491;-63
2022/06/12 11:01:57;;;;;;;5.33;3.43;;;28.60;99.90;;;;;;5012968;28;20452;-63
2022/06/12 11:04:41;;;;;;;6.07;2.87;;;28.60;99.90;;;;;;5016745;28;20819;-63
2022/06/12 11:07:23;;;;;;;3.60;2.60;;;28.40;99.90;;;;;;5016299;28;20762;-63
2022/06/12 11:10:03;;;;;;;5.00;3.10;;;29.30;99.90;;;;;;5016394;28;20456;-63
2022/06/12 11:12:56;;;;;;;6.60;2.80;;;29.90;99.90;;;;;;5015818;28;20782;-63
2022/06/12 11:15:34;;;;;;;5.00;3.40;;;30.00;99.90;;;;;;5016795;28;20467;-62
2022/06/12 11:18:14;;;;;;;5.60;2.70;;;28.70;99.90;;;;;;5016419;28;20491;-63
2022/06/12 11:20:55;;;;;;;10.93;3.87;;;28.70;99.90;;;;;;5017108;28;20469;-63
2022/06/12 11:23:39;;;;;;;5.03;3.00;;;28.20;99.90;;;;;;5015573;28;20491;-62
2022/06/12 11:26:32;;;;;;;4.90;3.40;;;28.40;99.90;;;;;;5020204;28;20525;-62
2022/06/12 11:29:27;;;;;;;6.77;2.93;;;27.80;99.90;;;;;;5014028;28;20794;-63
2022/06/12 11:32:20;;;;;;;5.33;3.10;;;28.00;99.90;;;;;;5012485;28;20480;-63
2022/06/12 11:35:12;;;;;;;6.17;3.83;;;28.60;99.90;;;;;;5014146;28;20595;-61
2022/06/12 11:38:00;;;;;;;5.10;3.17;;;28.40;99.90;;;;;;5015665;28;20963;-61
2022/06/12 11:40:39;;;;;;;5.37;3.50;;;29.10;99.90;;;;;;5017487;28;20534;-61
2022/06/12 11:43:19;;;;;;;6.80;3.37;;;29.20;99.90;;;;;;5017463;28;20900;-62
2022/06/12 11:45:59;;;;;;;4.53;2.90;;;29.20;99.90;;;;;;5000858;28;20476;-62
2022/06/12 11:49:02;;;;;;;4.37;3.27;;;29.30;99.90;;;;;;5006497;28;20916;-61
2022/06/12 11:51:40;;;;;;;4.37;2.77;;;28.50;99.90;;;;;;4982255;28;20474;-61
2022/06/12 11:54:34;;;;;;;4.93;2.87;;;27.70;99.90;;;;;;5007927;28;20632;-60
2022/06/12 11:57:09;;;;;;;5.77;3.40;;;28.00;99.90;;;;;;5001129;28;20461;-61
2022/06/12 11:59:50;;;;;;;4.83;3.03;;;28.00;99.90;;;;;;5014671;28;20495;-61
2022/06/12 12:02:42;;;;;;;7.57;3.40;;;28.40;99.90;;;;;;5018058;28;20476;-61
2022/06/12 12:05:38;;;;;;;4.97;3.20;;;28.90;99.90;;;;;;5016725;28;20468;-62
2022/06/12 12:08:22;;;;;;;5.10;2.97;;;29.50;99.90;;;;;;5020672;28;20455;-60
2022/06/12 12:11:02;;;;;;;5.33;2.77;;;29.30;99.90;;;;;;5019808;28;20522;-62
2022/06/12 12:13:33;;;;;;;8.40;3.20;;;28.10;99.90;;;;;;5019838;28;20491;-62
2022/06/12 12:16:08;;;;;;;7.20;4.07;;;27.90;99.90;;;;;;5018993;28;20911;-62
2022/06/12 12:18:40;;;;;;;4.60;3.40;;;28.10;99.90;;;;;;5019458;28;20494;-63
2022/06/12 12:21:13;;;;;;;5.83;2.50;;;28.40;99.90;;;;;;5019576;28;20464;-62
2022/06/12 12:23:46;;;;;;;4.90;2.80;;;29.00;99.90;;;;;;5019670;28;20438;-62
2022/06/12 12:26:24;;;;;;;6.50;3.03;;;29.40;99.90;;;;;;5019866;28;20464;-63
2022/06/12 12:28:55;;;;;;;4.40;3.17;;;29.70;99.90;;;;;;5019726;28;20456;-63
2022/06/12 12:31:24;;;;;;;5.03;3.20;;;29.10;99.90;;;;;;5017581;28;20443;-63
2022/06/12 12:34:00;;;;;;;6.10;3.00;;;29.00;99.90;;;;;;5019537;28;20470;-62
2022/06/12 12:42:28;;;;;;;8.97;4.37;;;28.80;99.90;;;;;;5019201;28;20471;-62
2022/06/12 12:44:56;;;;;;;4.97;3.03;;;28.00;99.90;;;;;;5018384;28;20459;-62
2022/06/12 12:47:26;;;;;;;4.63;3.30;;;28.50;99.90;;;;;;5019275;28;20472;-63
2022/06/12 12:50:06;;;;;;;3.00;2.70;;;28.70;99.90;;;;;;5018917;28;20523;-62
2022/06/12 12:52:55;;;;;;;5.77;3.37;;;28.50;99.90;;;;;;5018863;28;20459;-62
2022/06/12 12:55:29;;;;;;;5.73;3.20;;;28.80;99.90;;;;;;5019317;28;20468;-62
2022/06/12 12:58:13;;;;;;;8.43;3.30;;;28.60;99.90;;;;;;5019361;28;20495;-62
2022/06/12 13:00:46;;;;;;;5.70;3.10;;;29.00;99.90;;;;;;5017131;28;20483;-62
2022/06/12 13:03:29;;;;;;;7.07;3.40;;;29.00;99.90;;;;;;5018781;28;20778;-62
2022/06/12 13:06:23;;;;;;;5.60;3.00;;;28.70;99.90;;;;;;5017203;28;20893;-63
2022/06/12 13:09:27;;;;;;;5.40;3.33;;;29.10;99.90;;;;;;4999639;28;20460;-62
2022/06/12 13:12:25;;;;;;;4.43;3.33;;;28.60;99.90;;;;;;4995627;28;20508;-61
2022/06/12 13:15:15;;;;;;;6.67;3.77;;;29.20;99.90;;;;;;4999538;28;20560;-63
2022/06/12 13:17:51;;;;;;;9.07;3.60;;;29.70;99.90;;;;;;5010364;28;20464;-64
2022/06/12 13:20:42;;;;;;;5.37;3.27;;;29.30;99.90;;;;;;5017067;28;20464;-63
2022/06/12 13:23:39;;;;;;;5.47;2.93;;;28.80;99.90;;;;;;5017303;28;20466;-63
2022/06/12 13:26:13;;;;;;;5.47;3.50;;;29.10;99.90;;;;;;5006277;28;20759;-62
2022/06/12 13:28:55;;;;;;;7.00;3.53;;;29.30;99.90;;;;;;5018209;28;20540;-62
2022/06/12 13:31:28;;;;;;;4.80;3.97;;;29.20;99.90;;;;;;5018579;28;20460;-63
2022/06/12 13:33:57;;;;;;;5.80;3.13;;;29.10;99.90;;;;;;5018597;28;20966;-63
2022/06/12 13:36:27;;;;;;;3.50;2.90;;;29.60;99.90;;;;;;5018412;28;20462;-62
2022/06/12 13:38:58;;;;;;;8.53;3.63;;;29.90;99.90;;;;;;5017733;28;20582;-63
2022/06/12 13:41:35;;;;;;;8.57;3.43;;;30.70;99.90;;;;;;5019032;28;20460;-62
2022/06/12 13:44:21;;;;;;;6.43;3.70;;;30.90;99.90;;;;;;5017338;28;20477;-62
2022/06/12 13:46:50;;;;;;;6.00;3.23;;;30.30;99.90;;;;;;5018262;28;20888;-62